createdAt,value
2023-05-25T00:01:20.836Z,3.20
2023-05-25T00:06:26.245Z,2.85
2023-05-25T00:11:29.556Z,3.15
2023-05-25T00:16:37.904Z,3.10
2023-05-25T00:21:41.937Z,3.00
2023-05-25T00:26:44.861Z,2.80
2023-05-25T00:31:51.155Z,2.78
2023-05-25T00:36:55.269Z,3.08
2023-05-25T00:41:59.416Z,2.75
2023-05-25T00:47:06.028Z,2.80
2023-05-25T00:52:11.577Z,3.33
2023-05-25T00:57:16.960Z,2.83
2023-05-25T01:02:20.553Z,2.70
2023-05-25T01:07:31.381Z,2.88
2023-05-25T01:12:38.750Z,3.10
2023-05-25T01:17:43.946Z,3.10
2023-05-25T01:22:54.721Z,2.95
2023-05-25T01:28:06.980Z,2.67
2023-05-25T01:33:30.102Z,3.20
2023-05-25T01:38:33.712Z,2.70
2023-05-25T01:43:36.769Z,2.85
2023-05-25T01:49:18.551Z,2.97
2023-05-25T01:54:27.733Z,3.00
2023-05-25T01:59:32.214Z,2.83
2023-05-25T02:04:36.515Z,3.13
2023-05-25T02:09:39.634Z,3.38
2023-05-25T02:14:43.115Z,3.10
2023-05-25T02:19:48.745Z,3.00
2023-05-25T02:24:51.874Z,2.88
2023-05-25T02:29:54.796Z,2.92
2023-05-25T02:35:01.489Z,2.83
2023-05-25T02:40:06.596Z,2.88
2023-05-25T02:45:13.382Z,2.90
2023-05-25T02:50:17.218Z,2.75
2023-05-25T02:55:23.294Z,2.65
2023-05-25T03:00:26.812Z,3.08
2023-05-25T03:05:30.317Z,2.65
2023-05-25T03:10:33.287Z,2.83
2023-05-25T03:15:37.015Z,2.92
2023-05-25T03:20:42.645Z,3.03
2023-05-25T03:26:04.104Z,3.08
2023-05-25T03:31:08.591Z,2.80
2023-05-25T03:36:12.505Z,3.50
2023-05-25T03:41:15.688Z,3.25
2023-05-25T03:46:19.028Z,3.15
2023-05-25T03:51:22.125Z,2.90
2023-05-25T03:56:25.422Z,3.20
2023-05-25T04:01:30.319Z,3.10
2023-05-25T04:06:34.185Z,2.95
2023-05-25T04:11:37.158Z,3.28
2023-05-25T04:16:58.724Z,2.75
2023-05-25T04:22:01.762Z,3.33
2023-05-25T04:27:23.246Z,3.50
2023-05-25T04:32:30.094Z,3.63
2023-05-25T04:37:54.874Z,3.55
2023-05-25T04:43:18.496Z,3.00
2023-05-25T04:48:22.323Z,3.95
2023-05-25T04:53:25.560Z,3.65
2023-05-25T04:58:31.844Z,3.83
2023-05-25T05:03:34.898Z,4.00
2023-05-25T05:08:39.442Z,3.60
2023-05-25T05:13:42.397Z,4.20
2023-05-25T05:18:45.747Z,3.75
2023-05-25T05:23:48.714Z,3.40
2023-05-25T05:28:52.844Z,3.80
2023-05-25T05:33:56.900Z,3.72
2023-05-25T05:39:01.161Z,3.72
2023-05-25T05:44:04.860Z,3.58
2023-05-25T05:49:08.136Z,4.15
2023-05-25T05:54:11.148Z,3.97
2023-05-25T05:59:14.250Z,3.97
2023-05-25T06:04:17.818Z,3.70
2023-05-25T06:09:20.973Z,3.40
2023-05-25T06:14:25.184Z,4.00
2023-05-25T06:19:30.230Z,3.53
2023-05-25T06:24:33.518Z,3.42
2023-05-25T06:29:36.605Z,3.80
2023-05-25T06:34:39.596Z,3.35
2023-05-25T06:39:43.538Z,3.58
2023-05-25T06:44:47.266Z,3.63
2023-05-25T06:49:50.455Z,3.53
2023-05-25T06:54:53.581Z,3.30
2023-05-25T06:59:56.660Z,3.13
2023-05-25T07:04:59.619Z,3.28
2023-05-25T07:10:04.851Z,3.25
2023-05-25T07:15:08.651Z,3.72
2023-05-25T07:20:13.654Z,3.83
2023-05-25T07:25:16.843Z,3.67
2023-05-25T07:30:19.873Z,3.53
2023-05-25T07:35:23.044Z,3.53
2023-05-25T07:40:26.305Z,3.65
2023-05-25T07:45:29.290Z,3.72
2023-05-25T07:50:32.296Z,3.65
2023-05-25T07:55:35.408Z,3.90
2023-05-25T08:00:38.325Z,4.03
2023-05-25T08:05:41.401Z,3.58
2023-05-25T08:10:45.169Z,3.50
2023-05-25T08:15:49.943Z,3.75
2023-05-25T08:20:53.561Z,3.38
2023-05-25T08:25:56.627Z,3.60
2023-05-25T08:30:59.518Z,3.70
2023-05-25T08:36:02.596Z,3.88
2023-05-25T08:41:07.128Z,3.40
2023-05-25T08:46:10.270Z,4.18
2023-05-25T08:51:16.715Z,3.90
2023-05-25T08:56:20.936Z,3.60
2023-05-25T09:01:29.083Z,3.60
2023-05-25T09:06:34.166Z,3.50
2023-05-25T09:11:40.662Z,3.50
2023-05-25T09:16:45.599Z,3.72
2023-05-25T09:21:50.211Z,3.90
2023-05-25T09:26:54.271Z,3.70
2023-05-25T09:31:57.321Z,3.88
2023-05-25T09:37:04.354Z,3.92
2023-05-25T09:42:07.606Z,4.07
2023-05-25T09:47:10.686Z,4.03
2023-05-25T09:52:14.905Z,3.75
2023-05-25T09:57:19.939Z,3.85
2023-05-25T10:02:23.100Z,3.35
2023-05-25T10:07:27.233Z,3.67
2023-05-25T10:12:30.795Z,3.92
2023-05-25T10:17:36.308Z,3.63
2023-05-25T10:22:48.808Z,3.92
2023-05-25T10:28:05.273Z,3.80
2023-05-25T10:33:10.539Z,3.42
2023-05-25T10:38:14.273Z,3.50
2023-05-25T10:43:21.485Z,3.30
2023-05-25T10:48:35.356Z,3.53
2023-05-25T10:53:38.308Z,3.72
2023-05-25T10:58:46.722Z,3.38
2023-05-25T11:03:58.093Z,3.53
2023-05-25T11:09:02.921Z,3.58
2023-05-25T11:14:05.957Z,3.20
2023-05-25T11:19:15.395Z,3.15
2023-05-25T11:24:18.615Z,3.60
2023-05-25T11:29:22.650Z,3.33
2023-05-25T11:39:44.123Z,3.50
2023-05-25T11:44:49.396Z,3.17
2023-05-25T11:49:52.428Z,3.15
2023-05-25T11:54:55.576Z,3.22
2023-05-25T12:00:02.195Z,3.08
2023-05-25T12:05:11.188Z,3.00
2023-05-25T12:10:16.887Z,3.20
2023-05-25T12:15:24.253Z,3.25
2023-05-25T12:20:27.457Z,3.40
2023-05-25T12:25:42.402Z,3.60
2023-05-25T12:30:53.294Z,3.13
2023-05-25T12:35:56.687Z,3.10
2023-05-25T12:41:08.355Z,2.90
2023-05-25T12:46:11.951Z,3.13
2023-05-25T12:51:14.968Z,3.10
2023-05-25T12:56:18.061Z,2.95
2023-05-25T13:01:21.057Z,3.17
2023-05-25T13:06:23.911Z,3.00
2023-05-25T13:11:28.089Z,3.33
2023-05-25T13:16:34.381Z,3.30
2023-05-25T13:21:37.349Z,3.38
2023-05-25T13:26:40.815Z,3.33
2023-05-25T13:31:43.933Z,3.38
2023-05-25T13:36:47.841Z,3.13
2023-05-25T13:41:51.604Z,3.70
2023-05-25T13:46:54.677Z,3.70
2023-05-25T13:51:57.874Z,4.03
2023-05-25T13:57:00.982Z,3.45
2023-05-25T14:02:04.178Z,3.22
2023-05-25T14:07:07.209Z,3.35
2023-05-25T14:12:11.362Z,3.22
2023-05-25T14:17:15.428Z,3.78
2023-05-25T14:22:18.396Z,3.90
2023-05-25T14:27:21.765Z,3.95
2023-05-25T14:32:24.813Z,3.65
2023-05-25T14:37:27.718Z,3.40
2023-05-25T14:42:30.757Z,3.65
2023-05-25T14:47:33.918Z,3.63
2023-05-25T14:52:37.560Z,3.95
2023-05-25T14:57:40.817Z,4.00
2023-05-25T15:02:43.804Z,3.75
2023-05-25T15:07:46.834Z,3.38
2023-05-25T15:12:49.827Z,3.40
2023-05-25T15:17:52.859Z,3.42
2023-05-25T15:22:55.937Z,3.53
2023-05-25T15:27:59.101Z,3.50
2023-05-25T15:33:02.669Z,3.90
2023-05-25T15:38:05.583Z,3.13
2023-05-25T15:43:08.779Z,2.90
2023-05-25T15:48:30.472Z,3.10
2023-05-25T15:53:33.448Z,3.17
2023-05-25T15:58:36.392Z,3.10
2023-05-25T16:03:42.411Z,3.10
2023-05-25T16:08:46.216Z,3.72
2023-05-25T16:14:07.697Z,3.38
2023-05-25T16:19:13.729Z,3.45
2023-05-25T16:24:17.160Z,3.38
2023-05-25T16:29:20.510Z,3.38
2023-05-25T16:34:23.403Z,3.42
2023-05-25T16:39:26.464Z,3.33
2023-05-25T16:44:30.961Z,2.92
2023-05-25T16:49:34.028Z,3.20
2023-05-25T16:54:37.258Z,3.75
2023-05-25T16:59:40.158Z,3.85
2023-05-25T17:04:43.050Z,3.78
2023-05-25T17:09:45.963Z,3.50
2023-05-25T17:14:48.889Z,3.55
2023-05-25T17:19:51.857Z,3.92
2023-05-25T17:24:54.803Z,3.90
2023-05-25T17:29:57.948Z,3.80
2023-05-25T17:35:00.940Z,3.65
2023-05-25T17:40:05.674Z,3.67
2023-05-25T17:45:11.860Z,4.15
2023-05-25T17:50:15.020Z,3.67
2023-05-25T17:55:17.963Z,4.28
2023-05-25T18:00:23.314Z,4.18
2023-05-25T18:05:45.170Z,6.32
2023-05-25T18:10:50.364Z,4.88
2023-05-25T18:15:53.460Z,4.20
2023-05-25T18:20:56.411Z,4.13
2023-05-25T18:25:59.613Z,4.60
2023-05-25T18:31:02.901Z,4.13
2023-05-25T18:36:06.093Z,4.00
2023-05-25T18:41:09.080Z,3.83
2023-05-25T18:46:12.038Z,4.07
2023-05-25T18:51:17.178Z,4.38
2023-05-25T18:56:20.172Z,4.32
2023-05-25T19:01:25.588Z,4.00
2023-05-25T19:06:28.700Z,4.35
2023-05-25T19:11:49.959Z,4.28
2023-05-25T19:17:11.200Z,3.95
2023-05-25T19:22:14.212Z,5.22
2023-05-25T19:27:20.111Z,4.05
2023-05-25T19:32:23.533Z,4.22
2023-05-25T19:37:26.928Z,4.82
2023-05-25T19:42:29.836Z,4.53
2023-05-25T19:47:32.851Z,4.80
2023-05-25T19:52:36.051Z,5.20
2023-05-25T19:57:39.253Z,5.22
2023-05-25T20:02:42.377Z,4.50
2023-05-25T20:07:45.818Z,4.95
2023-05-25T20:12:48.812Z,6.18
2023-05-25T20:17:51.957Z,6.43
2023-05-25T20:22:55.209Z,6.50
2023-05-25T20:28:16.606Z,6.63
2023-05-25T20:33:20.807Z,6.35
2023-05-25T20:38:45.432Z,6.38
2023-05-25T20:43:48.405Z,6.05
2023-05-25T20:48:52.159Z,6.05
2023-05-25T20:53:55.295Z,5.95
2023-05-25T20:58:58.368Z,5.30
2023-05-25T21:04:01.617Z,5.20
2023-05-25T21:14:26.241Z,4.50
2023-05-25T21:19:29.107Z,5.57
2023-05-25T21:24:32.113Z,5.88
2023-05-25T21:29:35.107Z,5.07
2023-05-25T21:34:56.874Z,5.85
2023-05-25T21:40:00.145Z,6.85
2023-05-25T21:45:03.672Z,6.45
2023-05-25T21:50:09.540Z,6.78
2023-05-25T21:55:12.613Z,6.75
2023-05-25T22:00:16.607Z,6.32
2023-05-25T22:05:19.560Z,6.18
2023-05-25T22:10:22.596Z,5.70
2023-05-25T22:15:44.812Z,6.40
2023-05-25T22:20:48.003Z,6.32
2023-05-25T22:25:51.175Z,6.05
2023-05-25T22:30:54.138Z,6.78
2023-05-25T22:35:57.573Z,6.35
2023-05-25T22:41:18.997Z,5.78
2023-05-25T22:46:23.437Z,6.03
2023-05-25T22:51:26.556Z,6.57
2023-05-25T22:56:29.439Z,6.55
2023-05-25T23:01:32.380Z,6.55
2023-05-25T23:06:35.325Z,6.63
2023-05-25T23:11:38.322Z,6.90
2023-05-25T23:16:41.782Z,6.05
2023-05-25T23:21:44.858Z,6.85
2023-05-25T23:26:47.957Z,6.40
2023-05-25T23:31:50.936Z,6.22
2023-05-25T23:36:54.348Z,6.13
2023-05-25T23:42:16.995Z,6.18
2023-05-25T23:47:38.592Z,6.80
2023-05-25T23:52:42.019Z,6.45
2023-05-25T23:57:45.034Z,6.53
